메인 페이지
METAR-TAF:

METAR-TAF

공항 :

무르만스크, 러시아

위도: 68-58N, 경도: 033-03E, 고도: 51m

현재 날씨관측

예보는 29분 전, 15:00시(UTC)에 발표되었습니다.
남남동14kt
온도 -7°C
습도 86%
기압 999 hPa
시정: 2300m
고도 1900ft 상공 구름 많음, 적란운.
약한소낙눈, 낮은 날린눈

METAR: ULMM 111500Z 15007MPS 2300 -SHSN DRSN BKN019CB M07/M09 Q0999 R13/450237 NOSIG RMK QFE743

시각: 18:29 (15:29 UTC)

예보

예보는 1 시간 39분 전, 13:50시(UTC)에 발표되었습니다.
예보 대상 시간: 11일 15시부터 12일 15시까지 (UTC)
남남동10kt, 순간 최대 풍속 19kt
시정: 1600m
고도 1100ft 상공 구름 많음, 적란운.
소낙눈, 낮은 날린눈
일시적
11일 15시부터 12일 01시까지 (UTC)
16kt, 순간 최대 풍속 31kt
시정: 0700m
고도 600ft 상공
강한소낙눈, 날린눈
전환 중
12일 01시부터 12일 02시까지 (UTC)
남남서6kt, 순간 최대 풍속 16kt
시정: 6000m
약한소낙눈
일시적
12일 02시부터 12일 15시까지 (UTC)
서남서6kt, 순간 최대 풍속 16kt
시정: 3100m
고도 600ft 상공 구름 보통
고도 1100ft 상공 구름 많음, 적란운.
약한소낙눈

TAF: ULMM 111350Z 1115/1215 16005G10MPS 1600 SHSN DRSN BKN011CB TEMPO 1115/1201 18008G16MPS 0700 +SHSN BLSN VV006 BECMG 1201/1202 20003G08MPS 6000 -SHSN TEMPO 1202/1215 24003G08MPS 3100 -SHSN SCT006 BKN011CB

4,000개 이상의 공항 관측 자료 및 예보 (METAR 및 TAF 보고).

지도상에서 검색 가능한 기상관측소가 노란 점과 빨간 점으로 표시되어 있습니다.

기상관측소 명을 보려면 표시 위로 마우스를 이동하세요.

날씨 관측과 예보를 보려면 클릭하세요.

지도 변경 : 확대하려면 엑스 표시가 있는 녹색 버튼, 축소하려면 빼기 표시가 있는 녹색 버튼, 다음 페이지의 지도를 보려면 녹색 화살표를 클릭하세요.


METAR-TAF: